createdAt,value
2022-11-03T00:02:13.121Z,89.50
2022-11-03T00:04:40.313Z,89.30
2022-11-03T00:07:07.396Z,89.50
2022-11-03T00:09:34.534Z,89.10
2022-11-03T00:12:02.251Z,89.00
2022-11-03T00:14:29.353Z,89.00
2022-11-03T00:16:56.489Z,89.10
2022-11-03T00:19:23.701Z,89.10
2022-11-03T00:21:50.903Z,89.00
2022-11-03T00:24:18.124Z,88.90
2022-11-03T00:26:46.485Z,89.20
2022-11-03T00:29:14.407Z,89.40
2022-11-03T00:31:43.698Z,89.50
2022-11-03T00:34:11.490Z,89.60
2022-11-03T00:36:40.772Z,89.40
2022-11-03T00:39:08.515Z,89.40
2022-11-03T00:41:36.027Z,89.50
2022-11-03T00:44:03.504Z,89.60
2022-11-03T00:46:30.746Z,89.70
2022-11-03T00:48:58.782Z,89.70
2022-11-03T00:51:30.738Z,89.50
2022-11-03T00:53:59.612Z,89.50
2022-11-03T00:56:29.958Z,89.40
2022-11-03T00:58:59.065Z,89.40
2022-11-03T01:01:29.065Z,89.20
2022-11-03T01:04:16.444Z,88.80
2022-11-03T01:06:51.615Z,88.90
2022-11-03T01:09:29.902Z,88.70
2022-11-03T01:12:07.916Z,88.70
2022-11-03T01:14:42.511Z,88.70
2022-11-03T01:17:21.819Z,88.40
2022-11-03T01:19:49.281Z,88.00
2022-11-03T01:22:17.072Z,87.70
2022-11-03T01:24:44.951Z,87.70
2022-11-03T01:27:18.252Z,87.50
2022-11-03T01:29:45.450Z,87.40
2022-11-03T01:32:12.900Z,87.30
2022-11-03T01:34:40.663Z,87.30
2022-11-03T01:37:08.542Z,87.40
2022-11-03T01:39:35.605Z,87.50
2022-11-03T01:42:03.043Z,87.20
2022-11-03T01:44:32.853Z,87.00
2022-11-03T01:47:00.846Z,87.10
2022-11-03T01:49:48.268Z,87.20
2022-11-03T01:52:20.323Z,87.10
2022-11-03T01:54:54.200Z,86.60
2022-11-03T01:57:28.183Z,86.60
2022-11-03T01:59:58.088Z,86.60
2022-11-03T02:02:26.159Z,86.60
2022-11-03T02:04:54.628Z,86.70
2022-11-03T02:07:36.872Z,86.70
2022-11-03T02:10:04.778Z,86.80
2022-11-03T02:12:33.006Z,86.80
2022-11-03T02:15:05.977Z,86.90
2022-11-03T02:17:35.609Z,87.00
2022-11-03T02:20:07.928Z,86.90
2022-11-03T02:22:38.208Z,87.00
2022-11-03T02:25:08.339Z,87.30
2022-11-03T02:27:36.192Z,87.30
2022-11-03T02:30:06.444Z,88.40
2022-11-03T02:32:42.269Z,87.80
2022-11-03T02:35:14.133Z,87.60
2022-11-03T02:37:46.139Z,87.60
2022-11-03T02:40:21.645Z,87.70
2022-11-03T02:42:52.830Z,87.60
2022-11-03T02:45:22.852Z,88.00
2022-11-03T02:47:53.314Z,88.00
2022-11-03T02:50:22.353Z,87.90
2022-11-03T02:52:52.509Z,87.90
2022-11-03T02:55:46.364Z,88.00
2022-11-03T02:58:37.585Z,88.00
2022-11-03T03:01:30.933Z,88.10
2022-11-03T03:04:06.670Z,88.00
2022-11-03T03:06:39.946Z,88.70
2022-11-03T03:09:21.255Z,88.30
2022-11-03T03:11:49.880Z,88.20
2022-11-03T03:14:20.354Z,88.30
2022-11-03T03:17:01.547Z,88.60
2022-11-03T03:19:54.462Z,88.60
2022-11-03T03:22:49.359Z,89.50
2022-11-03T03:25:51.656Z,89.00
2022-11-03T03:28:26.669Z,89.00
2022-11-03T03:30:56.577Z,89.00
2022-11-03T03:35:54.308Z,89.00
2022-11-03T03:38:28.565Z,89.10
2022-11-03T03:40:58.797Z,89.10
2022-11-03T03:43:29.130Z,89.20
2022-11-03T03:46:00.962Z,89.30
2022-11-03T03:48:28.264Z,89.30
2022-11-03T03:50:55.686Z,89.30
2022-11-03T03:53:29.069Z,89.80
2022-11-03T03:55:58.075Z,89.60
2022-11-03T03:58:25.522Z,89.50
2022-11-03T04:00:52.824Z,90.00
2022-11-03T04:03:22.252Z,89.40
2022-11-03T04:05:49.669Z,89.80
2022-11-03T04:08:19.107Z,89.70
2022-11-03T04:11:06.665Z,89.60
2022-11-03T04:13:52.439Z,89.80
2022-11-03T04:16:38.281Z,90.30
2022-11-03T04:19:24.045Z,90.40
2022-11-03T04:22:09.882Z,90.40
2022-11-03T04:24:36.977Z,90.50
2022-11-03T04:27:25.438Z,90.40
2022-11-03T04:29:53.312Z,90.50
2022-11-03T04:32:20.834Z,90.50
2022-11-03T04:34:48.609Z,90.50
2022-11-03T04:37:17.645Z,90.50
2022-11-03T04:42:17.041Z,90.70
2022-11-03T04:44:44.561Z,90.70
2022-11-03T04:47:14.948Z,90.80
2022-11-03T04:49:43.178Z,90.90
2022-11-03T04:52:19.184Z,91.10
2022-11-03T04:54:50.431Z,90.90
2022-11-03T04:57:18.072Z,90.90
2022-11-03T04:59:48.582Z,90.80
2022-11-03T05:02:21.954Z,90.80
2022-11-03T05:04:53.687Z,91.10
2022-11-03T05:07:32.596Z,90.90
2022-11-03T05:09:59.883Z,90.90
2022-11-03T05:12:27.854Z,90.90
2022-11-03T05:14:58.645Z,90.90
2022-11-03T05:17:28.487Z,90.90
2022-11-03T05:19:58.751Z,91.00
2022-11-03T05:22:30.909Z,91.00
2022-11-03T05:25:01.772Z,91.00
2022-11-03T05:27:29.096Z,90.90
2022-11-03T05:30:01.014Z,91.00
2022-11-03T05:32:35.762Z,91.10
2022-11-03T05:35:04.658Z,91.40
2022-11-03T05:37:35.419Z,91.30
2022-11-03T05:40:22.969Z,91.30
2022-11-03T05:42:56.654Z,91.30
2022-11-03T05:45:32.656Z,91.60
2022-11-03T05:48:02.570Z,91.40
2022-11-03T05:50:34.108Z,90.90
2022-11-03T05:53:22.115Z,90.80
2022-11-03T05:55:49.995Z,90.80
2022-11-03T05:58:35.821Z,90.90
2022-11-03T06:01:12.454Z,90.90
2022-11-03T06:03:39.904Z,91.00
2022-11-03T06:06:20.894Z,90.90
2022-11-03T06:08:48.137Z,90.80
2022-11-03T06:11:22.891Z,90.90
2022-11-03T06:13:50.010Z,90.90
2022-11-03T06:16:37.705Z,91.00
2022-11-03T06:19:38.258Z,91.00
2022-11-03T06:22:50.818Z,91.10
2022-11-03T06:25:35.275Z,91.00
2022-11-03T06:28:05.467Z,91.10
2022-11-03T06:30:35.746Z,91.10
2022-11-03T06:33:34.913Z,91.10
2022-11-03T06:36:26.898Z,91.10
2022-11-03T06:39:01.365Z,91.00
2022-11-03T06:41:32.944Z,90.80
2022-11-03T06:44:02.447Z,90.90
2022-11-03T06:46:30.805Z,90.80
2022-11-03T06:49:01.466Z,90.60
2022-11-03T06:51:31.169Z,90.50
2022-11-03T06:54:00.526Z,90.60
2022-11-03T06:56:37.209Z,90.60
2022-11-03T06:59:10.768Z,90.50
2022-11-03T07:01:38.283Z,90.40
2022-11-03T07:04:19.256Z,90.50
2022-11-03T07:06:52.943Z,90.50
2022-11-03T07:12:20.042Z,90.50
2022-11-03T07:14:51.369Z,90.40
2022-11-03T07:17:22.004Z,90.30
2022-11-03T07:19:53.066Z,90.30
2022-11-03T07:22:28.504Z,90.40
2022-11-03T07:25:01.626Z,90.40
2022-11-03T07:27:32.959Z,90.30
2022-11-03T07:30:12.436Z,90.20
2022-11-03T07:32:41.398Z,90.10
2022-11-03T07:35:17.182Z,90.00
2022-11-03T07:37:51.578Z,90.00
2022-11-03T07:40:26.918Z,90.00
2022-11-03T07:43:00.908Z,89.90
2022-11-03T07:45:39.628Z,89.90
2022-11-03T07:48:23.941Z,89.90
2022-11-03T07:50:55.281Z,89.80
2022-11-03T07:53:34.138Z,89.20
2022-11-03T07:56:13.058Z,89.40
2022-11-03T07:58:45.284Z,89.20
2022-11-03T08:01:39.116Z,89.10
2022-11-03T08:04:17.718Z,88.90
2022-11-03T08:06:44.825Z,88.70
2022-11-03T08:09:11.942Z,88.30
2022-11-03T08:11:39.405Z,88.30
2022-11-03T08:14:09.195Z,88.40
2022-11-03T08:16:36.670Z,88.10
2022-11-03T08:19:05.657Z,88.00
2022-11-03T08:24:32.656Z,87.80
2022-11-03T08:27:13.366Z,87.60
2022-11-03T08:32:36.492Z,87.60
2022-11-03T08:35:12.182Z,87.60
2022-11-03T08:37:55.008Z,87.60
2022-11-03T08:40:27.089Z,88.00
2022-11-03T08:43:09.960Z,88.30
2022-11-03T08:45:37.449Z,88.40
2022-11-03T08:50:54.226Z,88.30
2022-11-03T08:53:25.863Z,88.80
2022-11-03T08:55:56.395Z,88.90
2022-11-03T08:58:25.159Z,88.60
2022-11-03T09:00:53.366Z,88.60
2022-11-03T09:03:20.815Z,88.70
2022-11-03T09:05:48.526Z,88.30
2022-11-03T09:11:04.234Z,87.00
2022-11-03T09:13:31.537Z,86.90
2022-11-03T09:15:58.975Z,86.70
2022-11-03T09:21:15.047Z,85.90
2022-11-03T09:23:42.367Z,85.50
2022-11-03T09:26:09.539Z,85.00
2022-11-03T09:28:37.038Z,84.50
2022-11-03T09:31:04.263Z,84.90
2022-11-03T09:33:32.537Z,84.50
2022-11-03T09:35:59.799Z,84.30
2022-11-03T09:38:26.993Z,83.80
2022-11-03T09:40:55.618Z,83.80
2022-11-03T09:43:23.393Z,83.80
2022-11-03T09:45:50.585Z,83.50
2022-11-03T09:48:18.392Z,83.20
2022-11-03T09:50:52.045Z,83.10
2022-11-03T09:53:19.670Z,83.10
2022-11-03T09:55:46.861Z,83.10
2022-11-03T09:58:18.018Z,82.70
2022-11-03T10:00:46.127Z,82.50
2022-11-03T10:03:17.193Z,82.70
2022-11-03T10:05:45.491Z,82.50
2022-11-03T10:08:29.250Z,82.00
2022-11-03T10:10:57.788Z,82.10
2022-11-03T10:13:38.403Z,82.10
2022-11-03T10:16:09.886Z,81.80
2022-11-03T10:18:41.664Z,81.90
2022-11-03T10:21:18.348Z,81.30
2022-11-03T10:23:50.439Z,81.60
2022-11-03T10:26:19.936Z,81.90
2022-11-03T10:29:10.034Z,80.90
2022-11-03T10:31:39.420Z,81.20
2022-11-03T10:34:36.629Z,80.90
2022-11-03T10:37:23.574Z,79.50
2022-11-03T10:39:55.808Z,80.30
2022-11-03T10:42:35.397Z,79.40
2022-11-03T10:45:11.275Z,79.80
2022-11-03T10:47:38.439Z,79.30
2022-11-03T10:50:26.934Z,79.10
2022-11-03T10:52:57.778Z,78.50
2022-11-03T10:55:27.310Z,77.40
2022-11-03T10:57:58.419Z,77.90
2022-11-03T11:00:27.278Z,77.80
2022-11-03T11:02:59.486Z,77.00
2022-11-03T11:05:26.994Z,76.70
2022-11-03T11:07:55.764Z,76.10
2022-11-03T11:10:31.341Z,76.70
2022-11-03T11:13:19.060Z,76.90
2022-11-03T11:15:51.355Z,76.70
2022-11-03T11:18:31.510Z,75.20
2022-11-03T11:21:51.580Z,76.30
2022-11-03T11:24:46.538Z,75.60
2022-11-03T11:27:42.267Z,75.00
2022-11-03T11:30:26.118Z,75.40
2022-11-03T11:33:14.586Z,75.60
2022-11-03T11:35:41.700Z,75.10
2022-11-03T11:38:46.579Z,75.50
2022-11-03T11:41:13.829Z,75.60
2022-11-03T11:43:41.056Z,75.60
2022-11-03T11:46:24.719Z,76.10
2022-11-03T11:48:58.218Z,75.90
2022-11-03T11:51:26.080Z,75.90
2022-11-03T11:54:16.192Z,75.90
2022-11-03T11:56:46.150Z,75.70
2022-11-03T11:59:25.608Z,76.00
2022-11-03T12:01:57.292Z,76.20
2022-11-03T12:04:27.985Z,76.20
2022-11-03T12:06:56.399Z,76.20
2022-11-03T12:09:27.703Z,76.30
2022-11-03T12:12:04.988Z,76.60
2022-11-03T12:14:37.103Z,76.90
2022-11-03T12:17:16.443Z,77.00
2022-11-03T12:19:48.770Z,77.10
2022-11-03T12:22:26.004Z,77.00
2022-11-03T12:24:57.775Z,77.00
2022-11-03T12:27:24.922Z,77.10
2022-11-03T12:29:54.118Z,77.20
2022-11-03T12:32:32.566Z,77.50
2022-11-03T12:35:00.499Z,77.80
2022-11-03T12:37:27.740Z,78.00
2022-11-03T12:39:54.836Z,78.10
2022-11-03T12:42:23.210Z,78.10
2022-11-03T12:44:50.465Z,78.00
2022-11-03T12:47:17.919Z,78.10
2022-11-03T12:49:46.417Z,78.30
2022-11-03T12:52:13.527Z,78.30
2022-11-03T12:54:42.276Z,78.10
2022-11-03T12:57:09.640Z,78.10
2022-11-03T12:59:37.104Z,78.20
2022-11-03T13:02:04.675Z,78.00
2022-11-03T13:04:31.926Z,78.10
2022-11-03T13:06:59.055Z,78.40
2022-11-03T13:09:26.470Z,78.40
2022-11-03T13:12:16.409Z,78.50
2022-11-03T13:14:46.071Z,78.40
2022-11-03T13:17:15.810Z,78.10
2022-11-03T13:19:42.928Z,77.40
2022-11-03T13:22:11.309Z,77.60
2022-11-03T13:24:38.826Z,77.30
2022-11-03T13:27:06.147Z,76.70
2022-11-03T13:29:36.050Z,76.30
2022-11-03T13:32:06.309Z,76.40
2022-11-03T13:34:33.802Z,74.60
2022-11-03T13:37:01.898Z,75.10
2022-11-03T13:39:29.104Z,74.20
2022-11-03T13:41:56.575Z,73.80
2022-11-03T13:44:23.804Z,72.90
2022-11-03T13:46:51.304Z,71.80
2022-11-03T13:52:06.148Z,71.50
2022-11-03T14:00:14.180Z,70.10
2022-11-03T14:05:30.973Z,70.00
2022-11-03T14:08:01.765Z,70.00
2022-11-03T14:10:29.944Z,70.00
2022-11-03T14:12:57.107Z,70.00
2022-11-03T14:15:24.397Z,69.50
2022-11-03T14:17:52.058Z,69.00
2022-11-03T14:20:19.272Z,69.10
2022-11-03T14:22:46.521Z,68.70
2022-11-03T14:25:13.701Z,68.00
2022-11-03T14:27:42.083Z,69.10
2022-11-03T14:30:14.273Z,68.60
2022-11-03T14:32:41.863Z,68.60
2022-11-03T14:35:10.352Z,69.00
2022-11-03T14:37:37.567Z,69.20
2022-11-03T14:40:06.851Z,70.10
2022-11-03T14:42:34.189Z,70.70
2022-11-03T14:45:01.359Z,71.30
2022-11-03T14:47:31.463Z,71.80
2022-11-03T14:49:58.617Z,72.40
2022-11-03T14:52:26.075Z,73.60
2022-11-03T14:54:54.720Z,73.80
2022-11-03T14:57:21.887Z,74.10
2022-11-03T14:59:53.227Z,74.70
2022-11-03T15:02:22.267Z,74.90
2022-11-03T15:04:49.561Z,75.20
2022-11-03T15:07:16.739Z,75.40
2022-11-03T15:09:43.912Z,75.60
2022-11-03T15:12:11.280Z,75.80
2022-11-03T15:14:38.371Z,76.10
2022-11-03T15:17:07.374Z,76.10
2022-11-03T15:19:34.563Z,76.30
2022-11-03T15:22:03.078Z,76.60
2022-11-03T15:27:20.524Z,76.70
2022-11-03T15:29:50.843Z,76.90
2022-11-03T15:32:19.558Z,77.00
2022-11-03T15:34:48.985Z,77.30
2022-11-03T15:37:16.124Z,77.50
2022-11-03T15:39:44.999Z,77.60
2022-11-03T15:42:19.377Z,77.70
2022-11-03T15:44:46.621Z,78.00
2022-11-03T15:47:15.144Z,78.40
2022-11-03T15:49:42.261Z,78.30
2022-11-03T15:52:10.776Z,78.60
2022-11-03T15:54:42.381Z,78.70
2022-11-03T15:57:17.607Z,78.80
2022-11-03T15:59:46.583Z,78.90
2022-11-03T16:02:35.755Z,79.10
2022-11-03T16:05:08.679Z,79.50
2022-11-03T16:07:38.179Z,79.50
2022-11-03T16:10:06.549Z,79.60
2022-11-03T16:12:36.515Z,79.70
2022-11-03T16:15:03.973Z,79.90
2022-11-03T16:17:31.294Z,80.10
2022-11-03T16:20:00.201Z,80.20
2022-11-03T16:22:29.146Z,80.30
2022-11-03T16:24:56.900Z,80.60
2022-11-03T16:27:27.102Z,80.60
2022-11-03T16:29:56.238Z,80.70
2022-11-03T16:32:36.535Z,80.80
2022-11-03T16:35:12.695Z,80.90
2022-11-03T16:37:44.552Z,81.10
2022-11-03T16:40:18.773Z,81.40
2022-11-03T16:42:47.718Z,81.50
2022-11-03T16:45:20.695Z,81.40
2022-11-03T16:47:49.081Z,81.80
2022-11-03T16:50:16.930Z,81.80
2022-11-03T16:52:44.962Z,82.00
2022-11-03T16:55:12.995Z,82.00
2022-11-03T16:57:40.405Z,82.40
2022-11-03T17:07:41.239Z,83.10
2022-11-03T17:10:21.151Z,83.30
2022-11-03T17:12:52.624Z,83.40
2022-11-03T17:15:20.378Z,83.60
2022-11-03T17:21:49.053Z,83.70
2022-11-03T17:24:28.349Z,83.90
2022-11-03T17:27:12.851Z,84.00
2022-11-03T17:29:48.306Z,84.30
2022-11-03T17:32:42.050Z,84.20
2022-11-03T17:35:18.529Z,84.20
2022-11-03T17:37:51.434Z,84.40
2022-11-03T17:40:22.470Z,84.60
2022-11-03T17:42:50.327Z,85.00
2022-11-03T17:45:21.489Z,85.00
2022-11-03T17:47:51.894Z,85.10
2022-11-03T17:50:23.237Z,85.30
2022-11-03T17:52:51.641Z,85.40
2022-11-03T17:55:38.633Z,85.60
2022-11-03T17:58:07.862Z,85.80
2022-11-03T18:00:36.282Z,85.90
2022-11-03T18:03:04.243Z,86.50
2022-11-03T18:05:33.205Z,85.90
2022-11-03T18:08:12.497Z,86.10
2022-11-03T18:10:46.392Z,86.10
2022-11-03T18:13:34.523Z,86.10
2022-11-03T18:19:18.293Z,86.50
2022-11-03T18:21:45.695Z,86.70
2022-11-03T18:24:28.859Z,86.90
2022-11-03T18:26:59.268Z,87.00
2022-11-03T18:29:27.257Z,87.20
2022-11-03T18:31:58.434Z,87.20
2022-11-03T18:34:27.197Z,87.30
2022-11-03T18:36:57.783Z,87.60
2022-11-03T18:39:34.318Z,87.60
2022-11-03T18:42:01.720Z,87.80
2022-11-03T18:44:31.724Z,88.00
2022-11-03T18:46:59.564Z,88.10
2022-11-03T18:52:41.924Z,88.40
2022-11-03T18:58:28.872Z,88.60
2022-11-03T19:00:56.303Z,88.70
2022-11-03T19:03:23.887Z,89.30
2022-11-03T19:05:52.796Z,89.30
2022-11-03T19:08:28.004Z,89.60
2022-11-03T19:10:56.690Z,89.70
2022-11-03T19:13:48.208Z,90.00
2022-11-03T19:16:19.150Z,90.00
2022-11-03T19:18:46.421Z,90.00
2022-11-03T19:21:16.440Z,90.10
2022-11-03T19:23:47.855Z,90.10
2022-11-03T19:26:27.336Z,90.20
2022-11-03T19:28:58.123Z,90.30
2022-11-03T19:31:34.143Z,90.40
2022-11-03T19:34:02.614Z,90.40
2022-11-03T19:36:33.140Z,90.60
2022-11-03T19:39:01.114Z,90.60
2022-11-03T19:41:47.292Z,90.70
2022-11-03T19:44:14.882Z,90.70
2022-11-03T19:46:42.673Z,90.80
2022-11-03T19:49:14.757Z,90.80
2022-11-03T19:54:51.650Z,91.00
2022-11-03T19:57:19.043Z,91.00
2022-11-03T19:59:49.129Z,91.10
2022-11-03T20:02:16.669Z,91.20
2022-11-03T20:04:46.993Z,91.30
2022-11-03T20:07:16.328Z,91.30
2022-11-03T20:09:44.168Z,91.40
2022-11-03T20:12:19.293Z,91.40
2022-11-03T20:14:46.391Z,91.40
2022-11-03T20:17:15.531Z,91.50
2022-11-03T20:19:43.612Z,91.60
2022-11-03T20:22:15.969Z,91.70
2022-11-03T20:24:45.213Z,91.80
2022-11-03T20:27:12.724Z,91.80
2022-11-03T20:29:40.432Z,91.80
2022-11-03T20:32:12.777Z,92.00
2022-11-03T20:34:40.376Z,91.90
2022-11-03T20:37:18.789Z,92.00
2022-11-03T20:39:47.490Z,92.10
2022-11-03T20:42:25.921Z,92.20
2022-11-03T20:44:53.086Z,92.20
2022-11-03T20:47:23.275Z,92.20
2022-11-03T20:49:50.443Z,92.30
2022-11-03T20:52:17.578Z,92.40
2022-11-03T20:54:44.998Z,92.30
2022-11-03T20:57:13.670Z,92.30
2022-11-03T20:59:41.421Z,92.30
2022-11-03T21:02:13.244Z,92.30
2022-11-03T21:04:43.812Z,92.30
2022-11-03T21:07:14.212Z,92.30
2022-11-03T21:09:41.636Z,92.40
2022-11-03T21:12:13.927Z,92.50
2022-11-03T21:15:02.152Z,92.60
2022-11-03T21:17:48.143Z,92.70
2022-11-03T21:20:15.624Z,92.80
2022-11-03T21:22:52.374Z,92.90
2022-11-03T21:25:22.436Z,93.00
2022-11-03T21:27:49.829Z,93.20
2022-11-03T21:30:18.173Z,93.10
2022-11-03T21:32:45.557Z,93.20
2022-11-03T21:35:19.206Z,93.30
2022-11-03T21:37:46.720Z,93.30
2022-11-03T21:40:13.922Z,93.40
2022-11-03T21:42:59.631Z,93.40
2022-11-03T21:45:27.113Z,93.50
2022-11-03T21:48:14.740Z,93.50
2022-11-03T21:50:43.198Z,93.60
2022-11-03T21:53:11.474Z,93.50
2022-11-03T21:55:39.642Z,93.60
2022-11-03T21:58:06.972Z,93.70
2022-11-03T22:00:34.348Z,93.60
2022-11-03T22:03:01.727Z,93.70
2022-11-03T22:05:29.519Z,93.80
2022-11-03T22:07:56.775Z,93.90
2022-11-03T22:10:24.231Z,94.00
2022-11-03T22:12:51.630Z,94.10
2022-11-03T22:15:37.381Z,94.20
2022-11-03T22:18:06.248Z,94.20
2022-11-03T22:20:52.616Z,94.20
2022-11-03T22:23:38.374Z,94.30
2022-11-03T22:26:24.408Z,94.40
2022-11-03T22:29:11.661Z,94.40
2022-11-03T22:31:41.630Z,94.50
2022-11-03T22:34:27.595Z,94.60
2022-11-03T22:36:54.911Z,94.50
2022-11-03T22:39:40.979Z,94.70
2022-11-03T22:42:30.007Z,94.70
2022-11-03T22:45:15.745Z,94.70
2022-11-03T22:47:43.081Z,94.80
2022-11-03T22:50:10.437Z,94.90
2022-11-03T22:52:37.536Z,95.00
2022-11-03T22:55:05.110Z,95.10
2022-11-03T22:57:32.338Z,95.10
2022-11-03T22:59:59.479Z,95.10
2022-11-03T23:02:26.843Z,95.20
2022-11-03T23:04:54.176Z,95.40
2022-11-03T23:07:21.425Z,95.30
2022-11-03T23:09:48.813Z,95.40
2022-11-03T23:12:17.602Z,95.30
2022-11-03T23:15:03.666Z,95.30
2022-11-03T23:17:49.437Z,95.30
2022-11-03T23:20:35.430Z,95.30
2022-11-03T23:23:02.537Z,95.20
2022-11-03T23:25:32.053Z,95.30
2022-11-03T23:27:59.343Z,95.30
2022-11-03T23:30:26.781Z,95.30
2022-11-03T23:32:53.897Z,95.40
2022-11-03T23:35:21.095Z,95.40
2022-11-03T23:37:48.475Z,95.40
2022-11-03T23:40:18.756Z,95.30
2022-11-03T23:42:48.962Z,95.30
2022-11-03T23:45:34.595Z,95.40
2022-11-03T23:48:20.371Z,95.40
2022-11-03T23:50:48.620Z,95.40
2022-11-03T23:53:15.671Z,95.40
2022-11-03T23:56:01.826Z,95.40
2022-11-03T23:58:29.147Z,95.40
